NGS weather

Nagasaki Airport
Nagasaki, Nagasaki Prefecture, Japan

Public forecast

Using degrees Celsius for public forecast. Weather courtesy of forecast.io.

Current aviation weather report (METAR) for Nagasaki Airport

Retrieved 2020/03/30 06:00 UTC (22 minutes ago):

RJFU 300600Z VRB02KT 9999 -RA FEW010 SCT070 BKN080 12/10 Q1017

Aviation forecast (TAF) for Nagasaki Airport

Retrieved 2020/03/30 06:30 UTC (0 seconds ago):

TAF RJFU 300511Z 3006/3112 12004KT 9999 FEW030 BECMG 3100/3103 33005KT